sensor_id;sensor_type;location;lat;lon;timestamp;temperature;humidity
21259;DHT22;10787;53.364;-1.480;2023-07-28T00:00:54;15.60;1.00
21259;DHT22;10787;53.364;-1.480;2023-07-28T00:03:38;15.50;1.00
21259;DHT22;10787;53.364;-1.480;2023-07-28T00:06:23;15.50;1.00
21259;DHT22;10787;53.364;-1.480;2023-07-28T00:09:07;15.60;29.20
21259;DHT22;10787;53.364;-1.480;2023-07-28T00:11:52;15.50;19.10
21259;DHT22;10787;53.364;-1.480;2023-07-28T00:14:36;15.50;8.00
21259;DHT22;10787;53.364;-1.480;2023-07-28T00:17:20;15.50;85.30
21259;DHT22;10787;53.364;-1.480;2023-07-28T00:20:04;15.40;86.50
21259;DHT22;10787;53.364;-1.480;2023-07-28T00:22:49;15.40;99.90
21259;DHT22;10787;53.364;-1.480;2023-07-28T00:25:33;15.40;99.90
21259;DHT22;10787;53.364;-1.480;2023-07-28T00:28:17;15.40;99.90
21259;DHT22;10787;53.364;-1.480;2023-07-28T00:31:02;15.40;99.90
21259;DHT22;10787;53.364;-1.480;2023-07-28T00:33:46;15.40;99.90
21259;DHT22;10787;53.364;-1.480;2023-07-28T00:36:31;15.30;99.90
21259;DHT22;10787;53.364;-1.480;2023-07-28T00:39:16;15.30;99.90
21259;DHT22;10787;53.364;-1.480;2023-07-28T00:42:00;15.40;99.90
21259;DHT22;10787;53.364;-1.480;2023-07-28T00:44:45;15.40;99.90
21259;DHT22;10787;53.364;-1.480;2023-07-28T00:47:29;15.40;99.90
21259;DHT22;10787;53.364;-1.480;2023-07-28T00:50:14;15.40;99.90
21259;DHT22;10787;53.364;-1.480;2023-07-28T00:52:58;15.40;99.90
21259;DHT22;10787;53.364;-1.480;2023-07-28T00:55:43;15.30;99.90
21259;DHT22;10787;53.364;-1.480;2023-07-28T00:58:30;15.30;99.90
21259;DHT22;10787;53.364;-1.480;2023-07-28T01:01:14;15.30;99.90
21259;DHT22;10787;53.364;-1.480;2023-07-28T01:03:58;15.20;99.90
21259;DHT22;10787;53.364;-1.480;2023-07-28T01:07:10;15.20;99.90
21259;DHT22;10787;53.364;-1.480;2023-07-28T01:10:06;15.20;99.90
21259;DHT22;10787;53.364;-1.480;2023-07-28T01:12:52;15.10;99.90
21259;DHT22;10787;53.364;-1.480;2023-07-28T01:15:36;15.10;1.00
21259;DHT22;10787;53.364;-1.480;2023-07-28T01:18:20;15.20;1.00
21259;DHT22;10787;53.364;-1.480;2023-07-28T01:21:08;15.10;1.00
21259;DHT22;10787;53.364;-1.480;2023-07-28T01:24:20;15.20;1.00
21259;DHT22;10787;53.364;-1.480;2023-07-28T01:27:05;15.20;1.00
21259;DHT22;10787;53.364;-1.480;2023-07-28T01:29:51;15.20;1.00
21259;DHT22;10787;53.364;-1.480;2023-07-28T01:32:36;15.20;1.00
21259;DHT22;10787;53.364;-1.480;2023-07-28T01:35:20;15.10;1.00
21259;DHT22;10787;53.364;-1.480;2023-07-28T01:38:05;15.10;99.90
21259;DHT22;10787;53.364;-1.480;2023-07-28T01:40:49;15.10;99.90
21259;DHT22;10787;53.364;-1.480;2023-07-28T01:43:33;15.00;1.00
21259;DHT22;10787;53.364;-1.480;2023-07-28T01:46:18;15.00;1.00
21259;DHT22;10787;53.364;-1.480;2023-07-28T01:49:02;15.00;99.90
21259;DHT22;10787;53.364;-1.480;2023-07-28T01:51:46;15.00;99.90
21259;DHT22;10787;53.364;-1.480;2023-07-28T01:54:30;14.90;99.90
21259;DHT22;10787;53.364;-1.480;2023-07-28T01:57:15;14.90;97.20
21259;DHT22;10787;53.364;-1.480;2023-07-28T02:00:00;14.90;99.90
21259;DHT22;10787;53.364;-1.480;2023-07-28T02:02:46;14.90;10.70
21259;DHT22;10787;53.364;-1.480;2023-07-28T02:05:31;14.90;99.90
21259;DHT22;10787;53.364;-1.480;2023-07-28T02:08:15;14.90;99.90
21259;DHT22;10787;53.364;-1.480;2023-07-28T02:10:59;14.90;99.90
21259;DHT22;10787;53.364;-1.480;2023-07-28T02:13:43;14.90;1.00
21259;DHT22;10787;53.364;-1.480;2023-07-28T02:16:27;14.90;1.00
21259;DHT22;10787;53.364;-1.480;2023-07-28T02:19:11;14.80;1.00
21259;DHT22;10787;53.364;-1.480;2023-07-28T02:21:55;14.80;1.00
21259;DHT22;10787;53.364;-1.480;2023-07-28T02:24:40;14.80;71.80
21259;DHT22;10787;53.364;-1.480;2023-07-28T02:27:24;14.80;99.90
21259;DHT22;10787;53.364;-1.480;2023-07-28T02:30:08;14.80;83.80
21259;DHT22;10787;53.364;-1.480;2023-07-28T02:32:52;14.70;93.50
21259;DHT22;10787;53.364;-1.480;2023-07-28T02:35:36;14.60;99.90
21259;DHT22;10787;53.364;-1.480;2023-07-28T02:38:21;14.50;99.90
21259;DHT22;10787;53.364;-1.480;2023-07-28T02:41:05;14.40;1.00
21259;DHT22;10787;53.364;-1.480;2023-07-28T02:43:49;14.50;1.00
21259;DHT22;10787;53.364;-1.480;2023-07-28T02:46:33;14.40;1.00
21259;DHT22;10787;53.364;-1.480;2023-07-28T02:49:17;14.40;1.00
21259;DHT22;10787;53.364;-1.480;2023-07-28T02:52:02;14.40;1.00
21259;DHT22;10787;53.364;-1.480;2023-07-28T02:54:47;14.40;1.00
21259;DHT22;10787;53.364;-1.480;2023-07-28T02:57:31;14.40;1.00
21259;DHT22;10787;53.364;-1.480;2023-07-28T03:00:16;14.40;1.00
21259;DHT22;10787;53.364;-1.480;2023-07-28T03:03:00;14.40;1.00
21259;DHT22;10787;53.364;-1.480;2023-07-28T03:05:44;14.50;1.00
21259;DHT22;10787;53.364;-1.480;2023-07-28T03:08:29;14.50;1.00
21259;DHT22;10787;53.364;-1.480;2023-07-28T03:11:13;14.50;1.00
21259;DHT22;10787;53.364;-1.480;2023-07-28T03:13:57;14.50;1.00
21259;DHT22;10787;53.364;-1.480;2023-07-28T03:16:42;14.50;1.00
21259;DHT22;10787;53.364;-1.480;2023-07-28T03:19:26;14.50;1.00
21259;DHT22;10787;53.364;-1.480;2023-07-28T03:22:10;14.50;1.00
21259;DHT22;10787;53.364;-1.480;2023-07-28T03:24:55;14.60;1.00
21259;DHT22;10787;53.364;-1.480;2023-07-28T03:27:39;14.60;1.00
21259;DHT22;10787;53.364;-1.480;2023-07-28T03:30:23;14.60;1.00
21259;DHT22;10787;53.364;-1.480;2023-07-28T03:33:07;14.60;1.00
21259;DHT22;10787;53.364;-1.480;2023-07-28T03:35:51;14.50;1.00
21259;DHT22;10787;53.364;-1.480;2023-07-28T03:38:35;14.50;1.00
21259;DHT22;10787;53.364;-1.480;2023-07-28T03:41:20;14.50;1.00
21259;DHT22;10787;53.364;-1.480;2023-07-28T03:44:05;14.40;1.00
21259;DHT22;10787;53.364;-1.480;2023-07-28T03:46:49;14.40;1.00
21259;DHT22;10787;53.364;-1.480;2023-07-28T03:49:33;14.40;1.00
21259;DHT22;10787;53.364;-1.480;2023-07-28T03:52:17;14.40;1.00
21259;DHT22;10787;53.364;-1.480;2023-07-28T03:55:02;14.50;1.00
21259;DHT22;10787;53.364;-1.480;2023-07-28T03:57:47;14.40;1.00
21259;DHT22;10787;53.364;-1.480;2023-07-28T04:00:31;14.50;1.00
21259;DHT22;10787;53.364;-1.480;2023-07-28T04:03:15;14.50;1.00
21259;DHT22;10787;53.364;-1.480;2023-07-28T04:05:59;14.50;1.00
21259;DHT22;10787;53.364;-1.480;2023-07-28T04:08:43;14.40;1.00
21259;DHT22;10787;53.364;-1.480;2023-07-28T04:11:28;14.40;1.00
21259;DHT22;10787;53.364;-1.480;2023-07-28T04:14:12;14.40;1.00
21259;DHT22;10787;53.364;-1.480;2023-07-28T04:16:57;14.30;1.00
21259;DHT22;10787;53.364;-1.480;2023-07-28T04:19:41;14.30;1.00
21259;DHT22;10787;53.364;-1.480;2023-07-28T04:22:26;14.30;1.00
21259;DHT22;10787;53.364;-1.480;2023-07-28T04:25:10;14.30;1.00
21259;DHT22;10787;53.364;-1.480;2023-07-28T04:27:54;14.30;1.00
21259;DHT22;10787;53.364;-1.480;2023-07-28T04:30:40;14.40;1.00
21259;DHT22;10787;53.364;-1.480;2023-07-28T04:33:24;14.40;1.00
21259;DHT22;10787;53.364;-1.480;2023-07-28T04:36:08;14.40;99.90
21259;DHT22;10787;53.364;-1.480;2023-07-28T04:38:52;14.40;1.00
21259;DHT22;10787;53.364;-1.480;2023-07-28T04:41:36;14.40;1.00
21259;DHT22;10787;53.364;-1.480;2023-07-28T04:44:21;14.50;1.00
21259;DHT22;10787;53.364;-1.480;2023-07-28T04:47:05;14.60;1.00
21259;DHT22;10787;53.364;-1.480;2023-07-28T04:49:49;14.70;99.90
21259;DHT22;10787;53.364;-1.480;2023-07-28T04:52:33;14.80;42.90
21259;DHT22;10787;53.364;-1.480;2023-07-28T04:55:18;14.90;1.00
21259;DHT22;10787;53.364;-1.480;2023-07-28T04:58:02;15.00;99.90
21259;DHT22;10787;53.364;-1.480;2023-07-28T05:00:46;15.10;1.00
21259;DHT22;10787;53.364;-1.480;2023-07-28T05:03:30;15.20;1.00
21259;DHT22;10787;53.364;-1.480;2023-07-28T05:06:14;15.30;1.00
21259;DHT22;10787;53.364;-1.480;2023-07-28T05:08:58;15.40;1.00
21259;DHT22;10787;53.364;-1.480;2023-07-28T05:11:42;15.40;1.00
21259;DHT22;10787;53.364;-1.480;2023-07-28T05:14:26;15.50;1.00
21259;DHT22;10787;53.364;-1.480;2023-07-28T05:17:11;15.50;1.00
21259;DHT22;10787;53.364;-1.480;2023-07-28T05:19:56;15.40;1.00
21259;DHT22;10787;53.364;-1.480;2023-07-28T05:22:40;15.40;1.00
21259;DHT22;10787;53.364;-1.480;2023-07-28T05:25:24;15.40;1.00
21259;DHT22;10787;53.364;-1.480;2023-07-28T05:28:09;15.30;99.90
21259;DHT22;10787;53.364;-1.480;2023-07-28T05:30:53;15.30;1.00
21259;DHT22;10787;53.364;-1.480;2023-07-28T05:33:39;15.20;54.60
21259;DHT22;10787;53.364;-1.480;2023-07-28T05:36:23;15.20;99.90
21259;DHT22;10787;53.364;-1.480;2023-07-28T05:39:08;15.20;99.90
21259;DHT22;10787;53.364;-1.480;2023-07-28T05:41:53;15.20;99.90
21259;DHT22;10787;53.364;-1.480;2023-07-28T05:44:37;15.30;99.90
21259;DHT22;10787;53.364;-1.480;2023-07-28T05:47:21;15.40;1.00
21259;DHT22;10787;53.364;-1.480;2023-07-28T05:50:06;15.50;1.00
21259;DHT22;10787;53.364;-1.480;2023-07-28T05:52:50;15.60;1.00
21259;DHT22;10787;53.364;-1.480;2023-07-28T05:55:34;15.70;1.00
21259;DHT22;10787;53.364;-1.480;2023-07-28T05:58:18;15.80;1.00
21259;DHT22;10787;53.364;-1.480;2023-07-28T06:01:03;15.90;99.90
21259;DHT22;10787;53.364;-1.480;2023-07-28T06:03:47;16.10;1.00
21259;DHT22;10787;53.364;-1.480;2023-07-28T06:06:31;16.20;1.00
21259;DHT22;10787;53.364;-1.480;2023-07-28T06:09:16;16.40;99.90
21259;DHT22;10787;53.364;-1.480;2023-07-28T06:12:00;16.50;99.90
21259;DHT22;10787;53.364;-1.480;2023-07-28T06:14:44;16.70;1.00
21259;DHT22;10787;53.364;-1.480;2023-07-28T06:17:29;16.70;1.00
21259;DHT22;10787;53.364;-1.480;2023-07-28T06:20:13;16.70;1.00
21259;DHT22;10787;53.364;-1.480;2023-07-28T06:22:57;16.70;1.00
21259;DHT22;10787;53.364;-1.480;2023-07-28T06:25:42;16.80;1.00
21259;DHT22;10787;53.364;-1.480;2023-07-28T06:28:30;16.90;1.00
21259;DHT22;10787;53.364;-1.480;2023-07-28T06:31:14;17.00;1.00
21259;DHT22;10787;53.364;-1.480;2023-07-28T06:33:59;17.20;1.00
21259;DHT22;10787;53.364;-1.480;2023-07-28T06:36:43;17.20;99.90
21259;DHT22;10787;53.364;-1.480;2023-07-28T06:39:28;17.10;1.00
21259;DHT22;10787;53.364;-1.480;2023-07-28T06:42:14;17.20;1.00
21259;DHT22;10787;53.364;-1.480;2023-07-28T06:45:00;17.30;99.90
21259;DHT22;10787;53.364;-1.480;2023-07-28T06:47:45;17.40;99.90
21259;DHT22;10787;53.364;-1.480;2023-07-28T06:50:30;17.40;99.90
21259;DHT22;10787;53.364;-1.480;2023-07-28T06:53:14;17.50;99.90
21259;DHT22;10787;53.364;-1.480;2023-07-28T06:55:58;17.70;99.90
21259;DHT22;10787;53.364;-1.480;2023-07-28T06:58:42;17.90;28.00
21259;DHT22;10787;53.364;-1.480;2023-07-28T07:01:26;18.00;1.00
21259;DHT22;10787;53.364;-1.480;2023-07-28T07:04:10;18.00;1.00
21259;DHT22;10787;53.364;-1.480;2023-07-28T07:06:55;18.10;1.00
21259;DHT22;10787;53.364;-1.480;2023-07-28T07:09:40;18.10;1.00
21259;DHT22;10787;53.364;-1.480;2023-07-28T07:12:25;18.30;1.00
21259;DHT22;10787;53.364;-1.480;2023-07-28T07:15:09;18.30;1.00
21259;DHT22;10787;53.364;-1.480;2023-07-28T07:17:55;18.30;1.00
21259;DHT22;10787;53.364;-1.480;2023-07-28T07:20:40;18.30;1.00
21259;DHT22;10787;53.364;-1.480;2023-07-28T07:23:25;18.30;1.00
21259;DHT22;10787;53.364;-1.480;2023-07-28T07:26:09;18.40;1.00
21259;DHT22;10787;53.364;-1.480;2023-07-28T07:28:53;18.50;1.00
21259;DHT22;10787;53.364;-1.480;2023-07-28T07:31:38;18.50;1.00
21259;DHT22;10787;53.364;-1.480;2023-07-28T07:34:23;18.60;1.00
21259;DHT22;10787;53.364;-1.480;2023-07-28T07:37:07;18.60;1.00
21259;DHT22;10787;53.364;-1.480;2023-07-28T07:39:52;18.40;1.00
21259;DHT22;10787;53.364;-1.480;2023-07-28T07:42:47;18.40;1.00
21259;DHT22;10787;53.364;-1.480;2023-07-28T07:45:47;18.40;1.00
21259;DHT22;10787;53.364;-1.480;2023-07-28T07:48:33;18.40;1.00
21259;DHT22;10787;53.364;-1.480;2023-07-28T07:51:18;18.50;1.00
21259;DHT22;10787;53.364;-1.480;2023-07-28T07:54:03;18.80;1.00
21259;DHT22;10787;53.364;-1.480;2023-07-28T07:56:47;18.80;1.00
21259;DHT22;10787;53.364;-1.480;2023-07-28T07:59:31;18.90;1.00
21259;DHT22;10787;53.364;-1.480;2023-07-28T08:02:16;18.90;1.00
21259;DHT22;10787;53.364;-1.480;2023-07-28T08:05:00;19.00;1.00
21259;DHT22;10787;53.364;-1.480;2023-07-28T08:07:45;19.10;1.00
21259;DHT22;10787;53.364;-1.480;2023-07-28T08:10:31;19.10;1.00
21259;DHT22;10787;53.364;-1.480;2023-07-28T08:13:16;19.20;1.00
21259;DHT22;10787;53.364;-1.480;2023-07-28T08:16:00;19.40;1.00
21259;DHT22;10787;53.364;-1.480;2023-07-28T08:18:45;19.60;1.00
21259;DHT22;10787;53.364;-1.480;2023-07-28T08:21:30;19.80;1.00
21259;DHT22;10787;53.364;-1.480;2023-07-28T08:24:15;19.90;1.00
21259;DHT22;10787;53.364;-1.480;2023-07-28T08:27:00;20.00;1.00
21259;DHT22;10787;53.364;-1.480;2023-07-28T08:29:44;20.20;1.00
21259;DHT22;10787;53.364;-1.480;2023-07-28T08:32:28;20.30;1.00
21259;DHT22;10787;53.364;-1.480;2023-07-28T08:35:12;20.60;1.00
21259;DHT22;10787;53.364;-1.480;2023-07-28T08:37:56;20.90;1.00
21259;DHT22;10787;53.364;-1.480;2023-07-28T08:40:41;20.90;1.00
21259;DHT22;10787;53.364;-1.480;2023-07-28T08:43:28;21.00;1.00
21259;DHT22;10787;53.364;-1.480;2023-07-28T08:46:12;20.90;1.00
21259;DHT22;10787;53.364;-1.480;2023-07-28T08:48:57;20.70;1.00
21259;DHT22;10787;53.364;-1.480;2023-07-28T08:51:41;20.60;1.00
21259;DHT22;10787;53.364;-1.480;2023-07-28T08:54:27;20.50;1.00
21259;DHT22;10787;53.364;-1.480;2023-07-28T08:57:12;20.30;99.90
21259;DHT22;10787;53.364;-1.480;2023-07-28T08:59:57;20.10;1.00
21259;DHT22;10787;53.364;-1.480;2023-07-28T09:02:41;20.00;1.00
21259;DHT22;10787;53.364;-1.480;2023-07-28T09:05:26;19.90;1.00
21259;DHT22;10787;53.364;-1.480;2023-07-28T09:08:10;19.90;1.00
21259;DHT22;10787;53.364;-1.480;2023-07-28T09:10:55;19.80;1.00
21259;DHT22;10787;53.364;-1.480;2023-07-28T09:13:41;19.60;99.90
21259;DHT22;10787;53.364;-1.480;2023-07-28T09:16:26;19.50;1.00
21259;DHT22;10787;53.364;-1.480;2023-07-28T09:19:11;19.40;99.90
21259;DHT22;10787;53.364;-1.480;2023-07-28T09:22:00;19.30;99.90
21259;DHT22;10787;53.364;-1.480;2023-07-28T09:24:44;19.30;1.00
21259;DHT22;10787;53.364;-1.480;2023-07-28T09:27:29;19.20;99.90
21259;DHT22;10787;53.364;-1.480;2023-07-28T09:30:13;19.10;1.00
21259;DHT22;10787;53.364;-1.480;2023-07-28T09:33:00;19.10;1.00
21259;DHT22;10787;53.364;-1.480;2023-07-28T09:35:49;19.30;99.90
21259;DHT22;10787;53.364;-1.480;2023-07-28T09:38:39;19.30;1.00
21259;DHT22;10787;53.364;-1.480;2023-07-28T09:41:24;19.50;1.00
21259;DHT22;10787;53.364;-1.480;2023-07-28T09:44:09;19.70;99.90
21259;DHT22;10787;53.364;-1.480;2023-07-28T09:46:55;19.90;1.00
21259;DHT22;10787;53.364;-1.480;2023-07-28T09:49:46;20.00;1.00
21259;DHT22;10787;53.364;-1.480;2023-07-28T09:52:34;19.90;1.00
21259;DHT22;10787;53.364;-1.480;2023-07-28T09:55:20;19.70;99.90
21259;DHT22;10787;53.364;-1.480;2023-07-28T09:58:05;19.60;99.90
21259;DHT22;10787;53.364;-1.480;2023-07-28T10:00:53;19.40;99.90
21259;DHT22;10787;53.364;-1.480;2023-07-28T10:03:37;19.50;1.00
21259;DHT22;10787;53.364;-1.480;2023-07-28T10:06:22;19.60;1.00
21259;DHT22;10787;53.364;-1.480;2023-07-28T10:09:07;19.90;1.00
21259;DHT22;10787;53.364;-1.480;2023-07-28T10:11:52;20.20;1.00
21259;DHT22;10787;53.364;-1.480;2023-07-28T10:14:37;20.30;1.00
21259;DHT22;10787;53.364;-1.480;2023-07-28T10:17:34;20.30;1.00
21259;DHT22;10787;53.364;-1.480;2023-07-28T10:20:34;20.20;1.00
21259;DHT22;10787;53.364;-1.480;2023-07-28T10:23:22;20.00;1.00
21259;DHT22;10787;53.364;-1.480;2023-07-28T10:26:07;20.00;1.00
21259;DHT22;10787;53.364;-1.480;2023-07-28T10:28:51;20.00;1.00
21259;DHT22;10787;53.364;-1.480;2023-07-28T10:31:36;20.00;1.00
21259;DHT22;10787;53.364;-1.480;2023-07-28T10:34:21;19.90;1.00
21259;DHT22;10787;53.364;-1.480;2023-07-28T10:37:06;19.90;1.00
21259;DHT22;10787;53.364;-1.480;2023-07-28T10:43:08;19.80;1.00
21259;DHT22;10787;53.364;-1.480;2023-07-28T10:45:53;19.70;99.90
21259;DHT22;10787;53.364;-1.480;2023-07-28T10:48:43;19.70;99.90
21259;DHT22;10787;53.364;-1.480;2023-07-28T10:51:27;19.60;1.00
21259;DHT22;10787;53.364;-1.480;2023-07-28T10:54:17;19.60;99.90
21259;DHT22;10787;53.364;-1.480;2023-07-28T10:57:04;19.60;99.90
21259;DHT22;10787;53.364;-1.480;2023-07-28T10:59:50;19.80;1.00
21259;DHT22;10787;53.364;-1.480;2023-07-28T11:02:46;20.00;1.00
21259;DHT22;10787;53.364;-1.480;2023-07-28T11:05:30;20.60;1.00
21259;DHT22;10787;53.364;-1.480;2023-07-28T11:08:15;21.00;99.90
21259;DHT22;10787;53.364;-1.480;2023-07-28T11:11:00;21.10;1.00
21259;DHT22;10787;53.364;-1.480;2023-07-28T11:13:46;21.10;99.90
21259;DHT22;10787;53.364;-1.480;2023-07-28T11:16:32;21.30;1.00
21259;DHT22;10787;53.364;-1.480;2023-07-28T11:19:17;21.20;99.90
21259;DHT22;10787;53.364;-1.480;2023-07-28T11:22:06;21.10;99.90
21259;DHT22;10787;53.364;-1.480;2023-07-28T11:24:51;21.30;99.90
21259;DHT22;10787;53.364;-1.480;2023-07-28T11:27:37;21.30;99.90
21259;DHT22;10787;53.364;-1.480;2023-07-28T11:30:22;21.30;99.90
21259;DHT22;10787;53.364;-1.480;2023-07-28T11:33:09;21.50;1.00
21259;DHT22;10787;53.364;-1.480;2023-07-28T11:35:57;21.90;1.00
21259;DHT22;10787;53.364;-1.480;2023-07-28T11:38:41;22.00;99.90
21259;DHT22;10787;53.364;-1.480;2023-07-28T11:41:27;22.30;99.90
21259;DHT22;10787;53.364;-1.480;2023-07-28T11:44:12;22.50;1.00
21259;DHT22;10787;53.364;-1.480;2023-07-28T11:46:57;22.70;99.90
21259;DHT22;10787;53.364;-1.480;2023-07-28T11:49:48;22.70;99.90
21259;DHT22;10787;53.364;-1.480;2023-07-28T11:52:33;22.90;99.90
21259;DHT22;10787;53.364;-1.480;2023-07-28T11:55:19;22.90;99.90
21259;DHT22;10787;53.364;-1.480;2023-07-28T11:58:05;22.90;99.90
21259;DHT22;10787;53.364;-1.480;2023-07-28T12:00:50;22.70;99.90
21259;DHT22;10787;53.364;-1.480;2023-07-28T12:03:35;22.80;99.90
21259;DHT22;10787;53.364;-1.480;2023-07-28T12:06:19;22.80;99.90
21259;DHT22;10787;53.364;-1.480;2023-07-28T12:09:06;22.80;99.90
21259;DHT22;10787;53.364;-1.480;2023-07-28T12:11:53;23.00;99.90
21259;DHT22;10787;53.364;-1.480;2023-07-28T12:14:36;23.20;99.90
21259;DHT22;10787;53.364;-1.480;2023-07-28T12:17:23;24.00;99.90
21259;DHT22;10787;53.364;-1.480;2023-07-28T12:20:10;24.00;99.90
21259;DHT22;10787;53.364;-1.480;2023-07-28T12:22:54;23.90;99.90
21259;DHT22;10787;53.364;-1.480;2023-07-28T12:25:38;23.60;99.90
21259;DHT22;10787;53.364;-1.480;2023-07-28T12:28:23;23.50;99.90
21259;DHT22;10787;53.364;-1.480;2023-07-28T12:31:07;23.30;99.90
21259;DHT22;10787;53.364;-1.480;2023-07-28T12:33:52;23.50;99.90
21259;DHT22;10787;53.364;-1.480;2023-07-28T12:36:36;23.80;99.90
21259;DHT22;10787;53.364;-1.480;2023-07-28T12:39:20;23.90;99.90
21259;DHT22;10787;53.364;-1.480;2023-07-28T12:42:09;23.90;99.90
21259;DHT22;10787;53.364;-1.480;2023-07-28T12:44:54;23.80;99.90
21259;DHT22;10787;53.364;-1.480;2023-07-28T12:47:39;24.30;99.90
21259;DHT22;10787;53.364;-1.480;2023-07-28T12:50:24;24.60;99.90
21259;DHT22;10787;53.364;-1.480;2023-07-28T12:53:08;25.60;99.90
21259;DHT22;10787;53.364;-1.480;2023-07-28T12:55:52;26.10;99.90
21259;DHT22;10787;53.364;-1.480;2023-07-28T12:58:36;26.20;99.90
21259;DHT22;10787;53.364;-1.480;2023-07-28T13:01:20;25.90;99.90
21259;DHT22;10787;53.364;-1.480;2023-07-28T13:04:04;25.60;99.90
21259;DHT22;10787;53.364;-1.480;2023-07-28T13:06:49;25.50;99.90
21259;DHT22;10787;53.364;-1.480;2023-07-28T13:09:33;25.00;99.90
21259;DHT22;10787;53.364;-1.480;2023-07-28T13:12:18;24.90;99.90
21259;DHT22;10787;53.364;-1.480;2023-07-28T13:15:02;25.40;99.90
21259;DHT22;10787;53.364;-1.480;2023-07-28T13:17:47;25.60;99.90
21259;DHT22;10787;53.364;-1.480;2023-07-28T13:20:31;25.80;99.90
21259;DHT22;10787;53.364;-1.480;2023-07-28T13:23:15;25.70;99.90
21259;DHT22;10787;53.364;-1.480;2023-07-28T13:26:00;25.30;99.90
21259;DHT22;10787;53.364;-1.480;2023-07-28T13:28:45;25.30;99.90
21259;DHT22;10787;53.364;-1.480;2023-07-28T13:31:31;25.30;99.90
21259;DHT22;10787;53.364;-1.480;2023-07-28T13:34:15;25.30;99.90
21259;DHT22;10787;53.364;-1.480;2023-07-28T13:36:59;25.60;99.90
21259;DHT22;10787;53.364;-1.480;2023-07-28T13:39:43;25.80;99.90
21259;DHT22;10787;53.364;-1.480;2023-07-28T13:42:28;26.80;99.90
21259;DHT22;10787;53.364;-1.480;2023-07-28T13:45:12;27.90;99.90
21259;DHT22;10787;53.364;-1.480;2023-07-28T13:47:56;28.80;99.90
21259;DHT22;10787;53.364;-1.480;2023-07-28T13:50:40;28.70;99.90
21259;DHT22;10787;53.364;-1.480;2023-07-28T13:53:25;28.20;99.90
21259;DHT22;10787;53.364;-1.480;2023-07-28T13:56:09;28.20;99.90
21259;DHT22;10787;53.364;-1.480;2023-07-28T13:58:53;28.00;99.90
21259;DHT22;10787;53.364;-1.480;2023-07-28T14:01:38;28.30;99.90
21259;DHT22;10787;53.364;-1.480;2023-07-28T14:04:23;27.80;99.90
21259;DHT22;10787;53.364;-1.480;2023-07-28T14:07:08;27.40;99.90
21259;DHT22;10787;53.364;-1.480;2023-07-28T14:09:52;27.40;99.90
21259;DHT22;10787;53.364;-1.480;2023-07-28T14:12:36;27.30;99.90
21259;DHT22;10787;53.364;-1.480;2023-07-28T14:15:21;27.10;99.90
21259;DHT22;10787;53.364;-1.480;2023-07-28T14:18:05;26.40;99.90
21259;DHT22;10787;53.364;-1.480;2023-07-28T14:20:49;26.50;99.90
21259;DHT22;10787;53.364;-1.480;2023-07-28T14:23:33;26.20;99.90
21259;DHT22;10787;53.364;-1.480;2023-07-28T14:26:17;25.70;99.90
21259;DHT22;10787;53.364;-1.480;2023-07-28T14:29:02;25.60;99.90
21259;DHT22;10787;53.364;-1.480;2023-07-28T14:31:46;25.10;99.90
21259;DHT22;10787;53.364;-1.480;2023-07-28T14:34:30;25.30;99.90
21259;DHT22;10787;53.364;-1.480;2023-07-28T14:37:14;25.40;99.90
21259;DHT22;10787;53.364;-1.480;2023-07-28T14:39:59;25.70;99.90
21259;DHT22;10787;53.364;-1.480;2023-07-28T14:42:43;25.60;99.90
21259;DHT22;10787;53.364;-1.480;2023-07-28T14:45:28;26.00;99.90
21259;DHT22;10787;53.364;-1.480;2023-07-28T14:48:12;26.20;99.90
21259;DHT22;10787;53.364;-1.480;2023-07-28T14:50:56;26.50;99.90
21259;DHT22;10787;53.364;-1.480;2023-07-28T14:53:41;26.80;99.90
21259;DHT22;10787;53.364;-1.480;2023-07-28T14:56:25;27.00;99.90
21259;DHT22;10787;53.364;-1.480;2023-07-28T14:59:11;26.80;99.90
21259;DHT22;10787;53.364;-1.480;2023-07-28T15:01:56;26.40;99.90
21259;DHT22;10787;53.364;-1.480;2023-07-28T15:04:40;25.90;99.90
21259;DHT22;10787;53.364;-1.480;2023-07-28T15:07:25;25.70;99.90
21259;DHT22;10787;53.364;-1.480;2023-07-28T15:10:09;25.30;99.90
21259;DHT22;10787;53.364;-1.480;2023-07-28T15:12:53;25.10;99.90
21259;DHT22;10787;53.364;-1.480;2023-07-28T15:15:38;24.90;99.90
21259;DHT22;10787;53.364;-1.480;2023-07-28T15:18:22;24.70;99.90
21259;DHT22;10787;53.364;-1.480;2023-07-28T15:21:07;25.00;99.90
21259;DHT22;10787;53.364;-1.480;2023-07-28T15:23:54;25.60;99.90
21259;DHT22;10787;53.364;-1.480;2023-07-28T15:26:39;27.50;99.90
21259;DHT22;10787;53.364;-1.480;2023-07-28T15:29:24;29.10;99.90
21259;DHT22;10787;53.364;-1.480;2023-07-28T15:32:08;29.60;99.90
21259;DHT22;10787;53.364;-1.480;2023-07-28T15:34:52;30.50;99.90
21259;DHT22;10787;53.364;-1.480;2023-07-28T15:37:37;30.10;99.90
21259;DHT22;10787;53.364;-1.480;2023-07-28T15:40:21;29.30;99.90
21259;DHT22;10787;53.364;-1.480;2023-07-28T15:43:06;28.60;99.90
21259;DHT22;10787;53.364;-1.480;2023-07-28T15:45:50;27.90;99.90
21259;DHT22;10787;53.364;-1.480;2023-07-28T15:48:38;27.30;99.90
21259;DHT22;10787;53.364;-1.480;2023-07-28T15:51:23;27.00;99.90
21259;DHT22;10787;53.364;-1.480;2023-07-28T15:54:07;26.70;99.90
21259;DHT22;10787;53.364;-1.480;2023-07-28T15:56:52;27.50;99.90
21259;DHT22;10787;53.364;-1.480;2023-07-28T15:59:36;28.60;99.90
21259;DHT22;10787;53.364;-1.480;2023-07-28T16:02:21;30.00;99.90
21259;DHT22;10787;53.364;-1.480;2023-07-28T16:05:07;30.20;99.90
21259;DHT22;10787;53.364;-1.480;2023-07-28T16:07:52;29.60;99.90
21259;DHT22;10787;53.364;-1.480;2023-07-28T16:10:36;28.30;99.90
21259;DHT22;10787;53.364;-1.480;2023-07-28T16:13:21;26.90;99.90
21259;DHT22;10787;53.364;-1.480;2023-07-28T16:16:05;25.90;99.90
21259;DHT22;10787;53.364;-1.480;2023-07-28T16:18:50;25.20;99.90
21259;DHT22;10787;53.364;-1.480;2023-07-28T16:21:34;24.70;99.90
21259;DHT22;10787;53.364;-1.480;2023-07-28T16:24:18;24.40;99.90
21259;DHT22;10787;53.364;-1.480;2023-07-28T16:27:02;24.20;99.90
21259;DHT22;10787;53.364;-1.480;2023-07-28T16:29:50;24.10;99.90
21259;DHT22;10787;53.364;-1.480;2023-07-28T16:32:35;23.80;99.90
21259;DHT22;10787;53.364;-1.480;2023-07-28T16:35:20;23.60;99.90
21259;DHT22;10787;53.364;-1.480;2023-07-28T16:38:04;23.60;99.90
21259;DHT22;10787;53.364;-1.480;2023-07-28T16:40:49;23.80;99.90
21259;DHT22;10787;53.364;-1.480;2023-07-28T16:43:33;24.70;99.90
21259;DHT22;10787;53.364;-1.480;2023-07-28T16:46:21;25.60;99.90
21259;DHT22;10787;53.364;-1.480;2023-07-28T16:49:05;26.00;99.90
21259;DHT22;10787;53.364;-1.480;2023-07-28T16:51:49;26.00;99.90
21259;DHT22;10787;53.364;-1.480;2023-07-28T16:54:33;26.20;99.90
21259;DHT22;10787;53.364;-1.480;2023-07-28T16:57:18;26.10;99.90
21259;DHT22;10787;53.364;-1.480;2023-07-28T17:00:03;26.00;99.90
21259;DHT22;10787;53.364;-1.480;2023-07-28T17:02:47;26.00;99.90
21259;DHT22;10787;53.364;-1.480;2023-07-28T17:05:31;26.90;99.90
21259;DHT22;10787;53.364;-1.480;2023-07-28T17:08:15;27.10;99.90
21259;DHT22;10787;53.364;-1.480;2023-07-28T17:10:59;26.60;99.90
21259;DHT22;10787;53.364;-1.480;2023-07-28T17:13:44;26.10;99.90
21259;DHT22;10787;53.364;-1.480;2023-07-28T17:16:28;25.40;99.90